METAR Data
IDs: Format: Raw Decoded Include TAF

Data at: 1743 UTC 03 Jul 2020

KECP 031732Z VRB05KT 10SM VCTS BKN041 BKN055 32/23 A2992 RMK AO2 LTG DSNT E AND SE AND NW T03170233 $